createdAt,value
2023-03-29T04:04:10.903Z,3.27
2023-03-29T04:08:23.446Z,3.24
2023-03-29T04:12:54.594Z,3.25
2023-03-29T04:17:06.506Z,3.16
2023-03-29T04:21:33.850Z,3.16
2023-03-29T04:25:45.745Z,3.06
2023-03-29T04:30:19.496Z,3.03
2023-03-29T04:34:56.395Z,3.04
2023-03-29T04:39:07.987Z,3.03
2023-03-29T04:43:20.323Z,2.92
2023-03-29T04:47:41.970Z,2.93
2023-03-29T04:52:00.803Z,2.91
2023-03-29T04:56:16.691Z,2.84
2023-03-29T05:01:03.879Z,2.84
2023-03-29T05:05:22.977Z,2.85
2023-03-29T05:09:35.635Z,2.87
2023-03-29T05:13:48.687Z,2.92
2023-03-29T05:18:00.862Z,2.98
2023-03-29T05:22:12.726Z,3.03
2023-03-29T05:26:25.513Z,3.12
2023-03-29T05:30:41.043Z,3.21
2023-03-29T05:34:59.945Z,3.28
2023-03-29T05:39:11.782Z,3.34
2023-03-29T05:43:26.580Z,3.38
2023-03-29T05:47:38.613Z,3.44
2023-03-29T05:51:51.997Z,3.51
2023-03-29T05:56:04.175Z,3.54
2023-03-29T06:00:21.848Z,3.59
2023-03-29T06:04:33.935Z,3.64
2023-03-29T06:09:04.058Z,3.74
2023-03-29T06:13:19.597Z,3.82
2023-03-29T06:17:33.640Z,4.70
2023-03-29T06:21:45.359Z,4.55
2023-03-29T06:26:01.355Z,4.41
2023-03-29T06:30:15.604Z,4.38
2023-03-29T06:34:31.432Z,4.27
2023-03-29T06:39:03.945Z,4.24
2023-03-29T06:43:35.110Z,4.29
2023-03-29T06:47:51.870Z,4.36
2023-03-29T06:52:03.547Z,4.37
2023-03-29T06:56:16.024Z,4.46
2023-03-29T07:00:30.672Z,4.67
2023-03-29T07:04:58.371Z,4.84
2023-03-29T07:09:14.318Z,4.99
2023-03-29T07:13:51.571Z,5.13
2023-03-29T07:18:05.398Z,5.25
2023-03-29T07:22:17.668Z,5.35
2023-03-29T07:26:34.593Z,5.47
2023-03-29T07:30:46.901Z,5.51
2023-03-29T07:35:04.533Z,5.58
2023-03-29T07:39:19.197Z,5.70
2023-03-29T07:43:47.772Z,5.97
2023-03-29T07:48:03.065Z,6.22
2023-03-29T07:52:33.161Z,6.48
2023-03-29T07:56:45.334Z,6.75
2023-03-29T08:01:04.151Z,7.11
2023-03-29T08:05:41.192Z,7.45
2023-03-29T08:09:59.162Z,7.78
2023-03-29T08:14:36.634Z,8.19
2023-03-29T08:18:54.837Z,8.57
2023-03-29T08:23:10.744Z,8.86
2023-03-29T08:27:48.571Z,9.21
2023-03-29T08:32:08.310Z,9.38
2023-03-29T08:36:20.067Z,9.55
2023-03-29T08:40:33.544Z,9.61
2023-03-29T08:45:19.614Z,9.76
2023-03-29T08:49:36.983Z,9.76
2023-03-29T08:54:02.149Z,9.78
2023-03-29T08:58:32.604Z,10.04
2023-03-29T09:02:45.810Z,10.17
2023-03-29T09:06:58.212Z,10.23
2023-03-29T09:11:41.440Z,10.30
2023-03-29T09:16:25.570Z,10.52
2023-03-29T09:20:42.206Z,10.60
2023-03-29T09:25:13.929Z,10.65
2023-03-29T09:29:58.310Z,10.81
2023-03-29T09:34:51.488Z,11.08
2023-03-29T09:39:05.655Z,11.36
2023-03-29T09:43:37.800Z,11.42
2023-03-29T09:48:03.488Z,11.52
2023-03-29T09:52:18.163Z,11.58
2023-03-29T09:56:39.798Z,11.87
2023-03-29T10:01:00.366Z,12.12
2023-03-29T10:05:16.426Z,12.47
2023-03-29T10:09:30.228Z,12.77
2023-03-29T10:13:59.311Z,12.79
2023-03-29T10:18:13.474Z,12.71
2023-03-29T10:22:31.841Z,12.75
2023-03-29T10:26:43.541Z,12.77
2023-03-29T10:30:57.669Z,12.74
2023-03-29T10:35:22.174Z,12.73
2023-03-29T10:44:34.536Z,13.02
2023-03-29T10:48:51.749Z,12.98
2023-03-29T10:53:09.541Z,12.93
2023-03-29T10:57:40.767Z,13.04
2023-03-29T11:02:14.194Z,13.23
2023-03-29T11:06:40.983Z,13.29
2023-03-29T11:11:27.461Z,13.43
2023-03-29T11:15:45.159Z,13.53
2023-03-29T11:20:31.100Z,13.68
2023-03-29T11:25:06.713Z,13.68
2023-03-29T11:29:27.045Z,13.87
2023-03-29T11:33:56.524Z,14.05
2023-03-29T11:38:20.012Z,14.42
2023-03-29T11:42:35.930Z,14.62
2023-03-29T11:47:00.185Z,14.82
2023-03-29T11:51:26.182Z,14.80
2023-03-29T11:55:39.597Z,14.76
2023-03-29T12:00:01.287Z,14.71
2023-03-29T12:04:22.852Z,14.80
2023-03-29T12:09:03.899Z,15.01
2023-03-29T12:13:24.367Z,14.89
2023-03-29T12:17:58.902Z,14.92
2023-03-29T12:22:11.044Z,14.77
2023-03-29T12:26:34.909Z,14.70
2023-03-29T12:31:03.341Z,14.43
2023-03-29T12:35:45.839Z,14.07
2023-03-29T12:40:27.474Z,13.75
2023-03-29T12:45:19.965Z,13.55
2023-03-29T12:49:38.119Z,13.44
2023-03-29T12:53:52.487Z,13.38
2023-03-29T12:58:06.910Z,13.31
2023-03-29T13:02:18.391Z,13.41
2023-03-29T13:06:48.284Z,13.72
2023-03-29T13:10:59.969Z,14.03
2023-03-29T13:15:14.372Z,14.23
2023-03-29T13:20:09.237Z,14.30
2023-03-29T13:24:38.509Z,14.44
2023-03-29T13:28:50.206Z,14.50
2023-03-29T13:33:20.896Z,14.39
2023-03-29T13:37:48.693Z,14.16
2023-03-29T13:42:21.537Z,14.19
2023-03-29T13:46:41.872Z,14.25
2023-03-29T13:51:08.148Z,14.34
2023-03-29T13:55:25.817Z,14.52
2023-03-29T14:00:12.750Z,14.71
2023-03-29T14:04:27.896Z,14.67
2023-03-29T14:08:41.514Z,14.72
2023-03-29T14:12:54.942Z,14.85
2023-03-29T14:17:07.523Z,15.15
2023-03-29T14:21:20.941Z,15.39
2023-03-29T14:25:32.429Z,15.57
2023-03-29T14:29:49.189Z,15.81
2023-03-29T14:34:02.609Z,15.97
2023-03-29T14:38:14.787Z,16.06
2023-03-29T14:42:28.968Z,16.06
2023-03-29T14:46:43.298Z,15.98
2023-03-29T14:50:55.000Z,15.93
2023-03-29T14:55:07.252Z,15.82
2023-03-29T14:59:29.542Z,15.76
2023-03-29T15:03:54.567Z,15.83
2023-03-29T15:08:10.298Z,15.73
2023-03-29T15:12:22.123Z,15.72
2023-03-29T15:16:36.970Z,15.71
2023-03-29T15:20:48.569Z,15.79
2023-03-29T15:25:00.838Z,15.81
2023-03-29T15:29:17.446Z,15.93
2023-03-29T15:33:34.441Z,15.99
2023-03-29T15:37:46.112Z,16.02
2023-03-29T15:41:58.270Z,16.01
2023-03-29T15:46:16.577Z,15.99
2023-03-29T15:50:28.656Z,15.96
2023-03-29T15:54:40.164Z,15.91
2023-03-29T15:58:52.066Z,15.87
2023-03-29T16:03:03.867Z,15.84
2023-03-29T16:07:17.659Z,15.88
2023-03-29T16:11:29.318Z,15.88
2023-03-29T16:20:14.820Z,15.84
2023-03-29T16:24:29.086Z,15.83
2023-03-29T16:28:41.048Z,15.80
2023-03-29T16:32:52.631Z,15.72
2023-03-29T16:37:04.342Z,15.64
2023-03-29T16:41:16.945Z,15.58
2023-03-29T16:45:28.635Z,15.51
2023-03-29T16:49:41.116Z,15.49
2023-03-29T16:53:54.048Z,15.44
2023-03-29T16:58:06.076Z,15.41
2023-03-29T17:02:17.674Z,15.33
2023-03-29T17:06:29.786Z,15.25
2023-03-29T17:10:41.775Z,15.27
2023-03-29T17:14:53.277Z,15.09
2023-03-29T17:19:04.781Z,15.04
2023-03-29T17:23:16.347Z,15.06
2023-03-29T17:27:27.873Z,14.91
2023-03-29T17:31:46.745Z,14.82
2023-03-29T17:35:58.387Z,14.80
2023-03-29T17:40:11.368Z,14.67
2023-03-29T17:44:22.946Z,14.61
2023-03-29T17:48:34.478Z,14.54
2023-03-29T17:52:45.997Z,14.46
2023-03-29T17:56:57.698Z,14.38
2023-03-29T18:01:10.968Z,14.28
2023-03-29T18:05:22.568Z,14.25
2023-03-29T18:09:34.369Z,14.26
2023-03-29T18:13:45.923Z,14.30
2023-03-29T18:17:58.061Z,14.33
2023-03-29T18:22:09.875Z,14.38
2023-03-29T18:26:22.859Z,14.33
2023-03-29T18:30:35.455Z,14.32
2023-03-29T18:34:47.054Z,14.21
2023-03-29T18:39:05.377Z,14.12
2023-03-29T18:43:16.943Z,13.98
2023-03-29T18:47:29.019Z,13.94
2023-03-29T18:51:42.064Z,13.91
2023-03-29T18:55:55.342Z,13.86
2023-03-29T19:00:11.847Z,13.94
2023-03-29T19:04:25.686Z,13.91
2023-03-29T19:08:41.063Z,13.84
2023-03-29T19:12:52.698Z,13.76
2023-03-29T19:17:04.180Z,13.68
2023-03-29T19:21:15.709Z,13.72
2023-03-29T19:25:27.742Z,13.72
2023-03-29T19:29:39.334Z,13.94
2023-03-29T19:33:50.895Z,14.01
2023-03-29T19:38:02.479Z,14.08
2023-03-29T19:42:14.030Z,14.09
2023-03-29T19:46:27.613Z,14.07
2023-03-29T19:50:40.956Z,13.99
2023-03-29T19:54:52.548Z,13.87
2023-03-29T19:59:04.124Z,13.77
2023-03-29T20:03:15.731Z,13.67
2023-03-29T20:07:27.857Z,13.64
2023-03-29T20:11:39.606Z,13.61
2023-03-29T20:15:51.397Z,13.70
2023-03-29T20:20:08.170Z,13.75
2023-03-29T20:24:19.706Z,13.76
2023-03-29T20:28:31.503Z,13.80
2023-03-29T20:32:43.298Z,13.83
2023-03-29T20:36:55.381Z,13.82
2023-03-29T20:41:09.277Z,13.84
2023-03-29T20:45:20.963Z,13.87
2023-03-29T20:49:37.900Z,13.84
2023-03-29T20:53:50.645Z,13.83
2023-03-29T20:58:02.373Z,13.78
2023-03-29T21:02:17.333Z,13.78
2023-03-29T21:06:28.906Z,13.70
2023-03-29T21:10:42.389Z,13.65
2023-03-29T21:14:54.035Z,13.68
2023-03-29T21:19:05.557Z,13.77
2023-03-29T21:23:17.154Z,13.68
2023-03-29T21:27:28.653Z,13.64
